sensor_id;sensor_type;location;lat;lon;timestamp;pressure;altitude;pressure_sealevel;temperature;humidity
10079;BME280;5078;42.544;22.966;2022-09-09T00:01:41;94044.13;;;17.00;100.00
10079;BME280;5078;42.544;22.966;2022-09-09T00:04:21;94116.59;;;17.77;100.00
10079;BME280;5078;42.544;22.966;2022-09-09T00:07:01;94110.25;;;17.71;100.00
10079;BME280;5078;42.544;22.966;2022-09-09T00:09:31;94083.94;;;17.55;100.00
10079;BME280;5078;42.544;22.966;2022-09-09T00:12:02;94116.75;;;17.43;100.00
10079;BME280;5078;42.544;22.966;2022-09-09T00:14:37;94106.59;;;17.59;100.00
10079;BME280;5078;42.544;22.966;2022-09-09T00:17:09;94109.25;;;17.59;100.00
10079;BME280;5078;42.544;22.966;2022-09-09T00:19:41;94113.03;;;17.44;100.00
10079;BME280;5078;42.544;22.966;2022-09-09T00:22:17;94111.13;;;17.58;100.00
10079;BME280;5078;42.544;22.966;2022-09-09T00:24:46;94110.34;;;17.44;100.00
10079;BME280;5078;42.544;22.966;2022-09-09T00:27:21;94095.69;;;17.54;100.00
10079;BME280;5078;42.544;22.966;2022-09-09T00:29:53;94089.44;;;17.15;100.00
10079;BME280;5078;42.544;22.966;2022-09-09T00:32:21;94102.78;;;17.35;100.00
10079;BME280;5078;42.544;22.966;2022-09-09T00:34:52;94107.75;;;17.18;100.00
10079;BME280;5078;42.544;22.966;2022-09-09T00:37:22;94094.75;;;17.21;100.00
10079;BME280;5078;42.544;22.966;2022-09-09T00:39:53;94100.09;;;17.35;100.00
10079;BME280;5078;42.544;22.966;2022-09-09T00:42:24;94088.97;;;17.31;100.00
10079;BME280;5078;42.544;22.966;2022-09-09T00:44:55;94089.69;;;17.52;100.00
10079;BME280;5078;42.544;22.966;2022-09-09T00:47:39;94093.69;;;17.29;100.00
10079;BME280;5078;42.544;22.966;2022-09-09T00:50:17;94091.13;;;17.54;100.00
10079;BME280;5078;42.544;22.966;2022-09-09T00:52:56;94086.09;;;17.71;100.00
10079;BME280;5078;42.544;22.966;2022-09-09T00:55:28;94092.69;;;17.75;100.00
10079;BME280;5078;42.544;22.966;2022-09-09T00:58:00;94097.56;;;17.92;100.00
10079;BME280;5078;42.544;22.966;2022-09-09T01:00:29;94096.94;;;17.96;100.00
10079;BME280;5078;42.544;22.966;2022-09-09T01:03:20;94071.28;;;17.62;100.00
10079;BME280;5078;42.544;22.966;2022-09-09T01:06:12;94106.31;;;17.74;100.00
10079;BME280;5078;42.544;22.966;2022-09-09T01:09:02;94107.94;;;17.81;100.00
10079;BME280;5078;42.544;22.966;2022-09-09T01:11:35;94109.53;;;17.96;100.00
10079;BME280;5078;42.544;22.966;2022-09-09T01:14:14;94103.75;;;17.92;100.00
10079;BME280;5078;42.544;22.966;2022-09-09T01:16:45;94111.22;;;17.90;100.00
10079;BME280;5078;42.544;22.966;2022-09-09T01:19:18;94106.03;;;17.95;100.00
10079;BME280;5078;42.544;22.966;2022-09-09T01:21:50;94085.56;;;18.01;100.00
10079;BME280;5078;42.544;22.966;2022-09-09T01:24:27;94092.31;;;18.10;100.00
10079;BME280;5078;42.544;22.966;2022-09-09T01:27:00;94094.13;;;18.16;100.00
10079;BME280;5078;42.544;22.966;2022-09-09T01:29:28;94090.19;;;18.19;100.00
10079;BME280;5078;42.544;22.966;2022-09-09T01:31:57;94096.59;;;18.18;100.00
10079;BME280;5078;42.544;22.966;2022-09-09T01:34:26;94090.22;;;17.74;100.00
10079;BME280;5078;42.544;22.966;2022-09-09T01:36:57;94095.25;;;17.57;100.00
10079;BME280;5078;42.544;22.966;2022-09-09T01:39:25;94097.41;;;17.35;100.00
10079;BME280;5078;42.544;22.966;2022-09-09T01:41:53;94087.13;;;17.25;100.00
10079;BME280;5078;42.544;22.966;2022-09-09T01:44:21;94085.81;;;17.48;100.00
10079;BME280;5078;42.544;22.966;2022-09-09T01:46:49;94085.75;;;17.54;100.00
10079;BME280;5078;42.544;22.966;2022-09-09T01:49:16;94098.34;;;17.60;100.00
10079;BME280;5078;42.544;22.966;2022-09-09T01:51:43;94090.81;;;17.37;100.00
10079;BME280;5078;42.544;22.966;2022-09-09T01:54:12;94041.66;;;17.05;100.00
10079;BME280;5078;42.544;22.966;2022-09-09T01:56:49;94090.31;;;16.95;100.00
10079;BME280;5078;42.544;22.966;2022-09-09T01:59:36;94091.31;;;17.01;100.00
10079;BME280;5078;42.544;22.966;2022-09-09T02:02:10;94094.22;;;16.79;100.00
10079;BME280;5078;42.544;22.966;2022-09-09T02:04:40;94089.28;;;16.83;100.00
10079;BME280;5078;42.544;22.966;2022-09-09T02:07:19;94089.25;;;16.90;100.00
10079;BME280;5078;42.544;22.966;2022-09-09T02:09:54;94094.03;;;16.88;100.00
10079;BME280;5078;42.544;22.966;2022-09-09T02:12:25;94088.88;;;16.73;100.00
10079;BME280;5078;42.544;22.966;2022-09-09T02:14:57;94081.66;;;16.60;100.00
10079;BME280;5078;42.544;22.966;2022-09-09T02:17:28;94098.75;;;16.59;100.00
10079;BME280;5078;42.544;22.966;2022-09-09T02:19:59;94102.66;;;16.56;100.00
10079;BME280;5078;42.544;22.966;2022-09-09T02:22:29;94094.00;;;16.54;100.00
10079;BME280;5078;42.544;22.966;2022-09-09T02:25:00;94103.47;;;16.57;100.00
10079;BME280;5078;42.544;22.966;2022-09-09T02:27:27;94105.34;;;16.43;100.00
10079;BME280;5078;42.544;22.966;2022-09-09T02:29:57;94115.22;;;16.36;100.00
10079;BME280;5078;42.544;22.966;2022-09-09T02:32:28;94113.16;;;16.31;100.00
10079;BME280;5078;42.544;22.966;2022-09-09T02:35:02;94101.22;;;16.21;100.00
10079;BME280;5078;42.544;22.966;2022-09-09T02:37:34;94107.16;;;16.03;100.00
10079;BME280;5078;42.544;22.966;2022-09-09T02:40:03;94103.47;;;16.17;100.00
10079;BME280;5078;42.544;22.966;2022-09-09T02:42:30;94115.03;;;16.37;100.00
10079;BME280;5078;42.544;22.966;2022-09-09T02:44:58;94118.94;;;16.28;100.00
10079;BME280;5078;42.544;22.966;2022-09-09T02:47:30;94104.50;;;16.49;100.00
10079;BME280;5078;42.544;22.966;2022-09-09T02:50:04;94094.63;;;16.50;100.00
10079;BME280;5078;42.544;22.966;2022-09-09T02:52:42;94109.47;;;16.79;100.00
10079;BME280;5078;42.544;22.966;2022-09-09T02:55:18;94115.00;;;16.64;100.00
10079;BME280;5078;42.544;22.966;2022-09-09T02:57:48;94111.91;;;16.74;100.00
10079;BME280;5078;42.544;22.966;2022-09-09T03:00:22;94095.88;;;16.60;100.00
10079;BME280;5078;42.544;22.966;2022-09-09T03:02:50;94107.00;;;16.57;100.00
10079;BME280;5078;42.544;22.966;2022-09-09T03:05:17;94093.38;;;16.72;100.00
10079;BME280;5078;42.544;22.966;2022-09-09T03:07:44;94094.44;;;16.51;100.00
10079;BME280;5078;42.544;22.966;2022-09-09T03:10:11;94095.88;;;16.34;100.00
10079;BME280;5078;42.544;22.966;2022-09-09T03:12:37;94103.81;;;15.81;100.00
10079;BME280;5078;42.544;22.966;2022-09-09T03:15:06;94102.63;;;15.42;100.00
10079;BME280;5078;42.544;22.966;2022-09-09T03:17:34;94087.56;;;15.27;100.00
10079;BME280;5078;42.544;22.966;2022-09-09T03:20:01;94107.47;;;15.18;100.00
10079;BME280;5078;42.544;22.966;2022-09-09T03:22:28;94098.94;;;15.01;100.00
10079;BME280;5078;42.544;22.966;2022-09-09T03:24:55;94106.00;;;15.16;100.00
10079;BME280;5078;42.544;22.966;2022-09-09T03:27:21;94102.53;;;15.15;100.00
10079;BME280;5078;42.544;22.966;2022-09-09T03:29:48;94096.41;;;15.28;100.00
10079;BME280;5078;42.544;22.966;2022-09-09T03:32:16;94101.09;;;15.19;100.00
10079;BME280;5078;42.544;22.966;2022-09-09T03:34:45;94102.84;;;15.40;100.00
10079;BME280;5078;42.544;22.966;2022-09-09T03:37:12;94101.41;;;15.44;100.00
10079;BME280;5078;42.544;22.966;2022-09-09T03:39:39;94113.97;;;15.57;100.00
10079;BME280;5078;42.544;22.966;2022-09-09T03:42:06;94100.16;;;15.47;100.00
10079;BME280;5078;42.544;22.966;2022-09-09T03:44:33;94114.06;;;15.70;100.00
10079;BME280;5078;42.544;22.966;2022-09-09T03:47:00;94117.03;;;15.41;100.00
10079;BME280;5078;42.544;22.966;2022-09-09T03:49:26;94114.53;;;15.32;100.00
10079;BME280;5078;42.544;22.966;2022-09-09T03:51:55;94114.53;;;15.32;100.00
10079;BME280;5078;42.544;22.966;2022-09-09T03:54:24;94046.88;;;14.84;100.00
10079;BME280;5078;42.544;22.966;2022-09-09T03:56:50;94119.72;;;15.06;100.00
10079;BME280;5078;42.544;22.966;2022-09-09T03:59:17;94109.28;;;15.11;100.00
10079;BME280;5078;42.544;22.966;2022-09-09T04:01:44;94106.41;;;15.13;100.00
10079;BME280;5078;42.544;22.966;2022-09-09T04:04:12;94118.06;;;15.05;100.00
10079;BME280;5078;42.544;22.966;2022-09-09T04:06:39;94089.06;;;14.95;100.00
10079;BME280;5078;42.544;22.966;2022-09-09T04:09:07;94122.34;;;15.41;100.00
10079;BME280;5078;42.544;22.966;2022-09-09T04:11:34;94112.53;;;15.54;100.00
10079;BME280;5078;42.544;22.966;2022-09-09T04:14:00;94123.25;;;15.61;100.00
10079;BME280;5078;42.544;22.966;2022-09-09T04:16:27;94117.38;;;15.72;100.00
10079;BME280;5078;42.544;22.966;2022-09-09T04:18:54;94108.13;;;15.82;100.00
10079;BME280;5078;42.544;22.966;2022-09-09T04:21:23;94108.13;;;15.82;100.00
10079;BME280;5078;42.544;22.966;2022-09-09T04:23:49;94107.72;;;15.85;100.00
10079;BME280;5078;42.544;22.966;2022-09-09T04:26:18;94113.94;;;15.99;100.00
10079;BME280;5078;42.544;22.966;2022-09-09T04:28:45;94123.03;;;16.17;100.00
10079;BME280;5078;42.544;22.966;2022-09-09T04:31:17;94126.28;;;16.06;100.00
10079;BME280;5078;42.544;22.966;2022-09-09T04:33:45;94134.94;;;15.95;100.00
10079;BME280;5078;42.544;22.966;2022-09-09T04:36:12;94142.75;;;16.03;100.00
10079;BME280;5078;42.544;22.966;2022-09-09T04:38:39;94140.94;;;16.24;100.00
10079;BME280;5078;42.544;22.966;2022-09-09T04:41:06;94102.66;;;15.48;100.00
10079;BME280;5078;42.544;22.966;2022-09-09T04:43:35;94107.44;;;15.66;100.00
10079;BME280;5078;42.544;22.966;2022-09-09T04:46:02;94113.53;;;15.95;100.00
10079;BME280;5078;42.544;22.966;2022-09-09T04:48:29;94114.78;;;16.12;100.00
10079;BME280;5078;42.544;22.966;2022-09-09T04:50:57;94105.53;;;16.22;100.00
10079;BME280;5078;42.544;22.966;2022-09-09T04:53:24;94098.34;;;16.55;100.00
10079;BME280;5078;42.544;22.966;2022-09-09T04:55:52;94062.09;;;16.59;100.00
10079;BME280;5078;42.544;22.966;2022-09-09T04:58:19;94104.53;;;16.83;100.00
10079;BME280;5078;42.544;22.966;2022-09-09T05:00:48;94094.38;;;17.11;100.00
10079;BME280;5078;42.544;22.966;2022-09-09T05:03:16;94097.97;;;17.43;100.00
10079;BME280;5078;42.544;22.966;2022-09-09T05:05:42;94104.81;;;17.91;100.00
10079;BME280;5078;42.544;22.966;2022-09-09T05:08:10;94116.59;;;18.22;100.00
10079;BME280;5078;42.544;22.966;2022-09-09T05:10:38;94113.25;;;18.58;100.00
10079;BME280;5078;42.544;22.966;2022-09-09T05:13:07;94107.44;;;18.61;100.00
10079;BME280;5078;42.544;22.966;2022-09-09T05:15:34;94105.00;;;18.85;100.00
10079;BME280;5078;42.544;22.966;2022-09-09T05:18:03;94102.19;;;18.98;100.00
10079;BME280;5078;42.544;22.966;2022-09-09T05:20:29;94109.84;;;19.20;100.00
10079;BME280;5078;42.544;22.966;2022-09-09T05:22:57;94107.88;;;19.27;100.00
10079;BME280;5078;42.544;22.966;2022-09-09T05:25:24;94096.16;;;19.21;100.00
10079;BME280;5078;42.544;22.966;2022-09-09T05:27:52;94093.94;;;19.55;100.00
10079;BME280;5078;42.544;22.966;2022-09-09T05:30:20;94079.19;;;19.57;100.00
10079;BME280;5078;42.544;22.966;2022-09-09T05:32:47;94079.06;;;19.52;100.00
10079;BME280;5078;42.544;22.966;2022-09-09T05:35:15;94078.75;;;19.60;100.00
10079;BME280;5078;42.544;22.966;2022-09-09T05:37:44;94091.66;;;19.89;100.00
10079;BME280;5078;42.544;22.966;2022-09-09T05:40:11;94016.00;;;20.09;100.00
10079;BME280;5078;42.544;22.966;2022-09-09T05:42:38;94093.44;;;20.67;100.00
10079;BME280;5078;42.544;22.966;2022-09-09T05:45:06;94083.00;;;20.94;100.00
10079;BME280;5078;42.544;22.966;2022-09-09T05:47:34;94094.63;;;21.18;100.00
10079;BME280;5078;42.544;22.966;2022-09-09T05:50:00;94095.66;;;21.52;97.57
10079;BME280;5078;42.544;22.966;2022-09-09T05:52:29;94103.97;;;21.74;95.77
10079;BME280;5078;42.544;22.966;2022-09-09T05:54:56;94103.69;;;21.76;94.38
10079;BME280;5078;42.544;22.966;2022-09-09T05:57:24;94098.50;;;21.22;99.82
10079;BME280;5078;42.544;22.966;2022-09-09T05:59:51;94097.06;;;21.55;98.05
10079;BME280;5078;42.544;22.966;2022-09-09T06:02:18;94095.06;;;21.62;97.18
10079;BME280;5078;42.544;22.966;2022-09-09T06:04:45;94099.50;;;21.68;96.54
10079;BME280;5078;42.544;22.966;2022-09-09T06:07:12;94103.59;;;21.71;96.79
10079;BME280;5078;42.544;22.966;2022-09-09T06:09:41;94113.84;;;21.97;95.52
10079;BME280;5078;42.544;22.966;2022-09-09T06:12:08;94103.69;;;22.45;93.34
10079;BME280;5078;42.544;22.966;2022-09-09T06:14:34;94097.25;;;22.63;92.13
10079;BME280;5078;42.544;22.966;2022-09-09T06:17:02;94092.69;;;23.36;86.27
10079;BME280;5078;42.544;22.966;2022-09-09T06:19:28;94083.78;;;23.75;83.14
10079;BME280;5078;42.544;22.966;2022-09-09T06:21:56;94091.00;;;23.91;81.52
10079;BME280;5078;42.544;22.966;2022-09-09T06:24:22;94079.88;;;24.37;79.17
10079;BME280;5078;42.544;22.966;2022-09-09T06:26:50;94070.69;;;24.16;80.29
10079;BME280;5078;42.544;22.966;2022-09-09T06:29:17;94072.41;;;24.22;80.31
10079;BME280;5078;42.544;22.966;2022-09-09T06:31:44;94081.50;;;24.38;79.31
10079;BME280;5078;42.544;22.966;2022-09-09T06:34:11;94081.41;;;24.27;79.35
10079;BME280;5078;42.544;22.966;2022-09-09T06:36:38;94065.59;;;24.19;78.96
10079;BME280;5078;42.544;22.966;2022-09-09T06:39:06;94022.69;;;23.62;80.15
10079;BME280;5078;42.544;22.966;2022-09-09T06:41:34;94086.00;;;24.27;79.91
10079;BME280;5078;42.544;22.966;2022-09-09T06:44:02;94083.03;;;24.56;78.20
10079;BME280;5078;42.544;22.966;2022-09-09T06:46:30;94091.41;;;24.49;78.02
10079;BME280;5078;42.544;22.966;2022-09-09T06:48:58;94087.44;;;24.94;76.31
10079;BME280;5078;42.544;22.966;2022-09-09T06:51:27;94083.28;;;25.18;74.67
10079;BME280;5078;42.544;22.966;2022-09-09T06:53:55;94096.13;;;24.96;73.21
10079;BME280;5078;42.544;22.966;2022-09-09T06:56:24;94090.25;;;25.04;75.45
10079;BME280;5078;42.544;22.966;2022-09-09T06:58:54;94087.91;;;25.66;68.38
10079;BME280;5078;42.544;22.966;2022-09-09T07:01:24;94082.66;;;25.96;65.78
10079;BME280;5078;42.544;22.966;2022-09-09T07:03:52;94083.94;;;26.67;60.38
10079;BME280;5078;42.544;22.966;2022-09-09T07:06:21;94077.00;;;26.18;59.10
10079;BME280;5078;42.544;22.966;2022-09-09T07:08:49;94073.97;;;25.99;60.90
10079;BME280;5078;42.544;22.966;2022-09-09T07:11:18;94077.41;;;26.73;57.61
10079;BME280;5078;42.544;22.966;2022-09-09T07:13:44;94076.34;;;26.79;58.62
10079;BME280;5078;42.544;22.966;2022-09-09T07:16:13;94077.19;;;27.26;55.25
10079;BME280;5078;42.544;22.966;2022-09-09T07:18:42;94083.38;;;27.57;53.48
10079;BME280;5078;42.544;22.966;2022-09-09T07:21:10;94077.41;;;27.35;53.59
10079;BME280;5078;42.544;22.966;2022-09-09T07:23:37;94071.91;;;27.60;52.76
10079;BME280;5078;42.544;22.966;2022-09-09T07:26:08;94050.75;;;26.70;55.27
10079;BME280;5078;42.544;22.966;2022-09-09T07:28:35;94075.50;;;27.09;55.17
10079;BME280;5078;42.544;22.966;2022-09-09T07:31:02;94039.81;;;26.34;57.53
10079;BME280;5078;42.544;22.966;2022-09-09T07:33:30;94072.81;;;26.89;55.84
10079;BME280;5078;42.544;22.966;2022-09-09T07:36:04;94065.97;;;27.12;55.06
10079;BME280;5078;42.544;22.966;2022-09-09T07:38:32;94076.59;;;27.39;54.19
10079;BME280;5078;42.544;22.966;2022-09-09T07:41:04;94080.72;;;27.26;54.84
10079;BME280;5078;42.544;22.966;2022-09-09T07:43:32;94046.41;;;26.79;55.51
10079;BME280;5078;42.544;22.966;2022-09-09T07:46:00;94083.41;;;26.60;56.96
10079;BME280;5078;42.544;22.966;2022-09-09T07:48:28;94083.69;;;26.68;55.84
10079;BME280;5078;42.544;22.966;2022-09-09T07:51:05;94079.25;;;26.32;57.40
10079;BME280;5078;42.544;22.966;2022-09-09T07:53:33;94078.91;;;26.13;58.33
10079;BME280;5078;42.544;22.966;2022-09-09T07:56:03;94073.47;;;26.08;58.33
10079;BME280;5078;42.544;22.966;2022-09-09T07:58:30;94098.66;;;25.88;60.49
10079;BME280;5078;42.544;22.966;2022-09-09T08:00:57;94092.81;;;25.64;62.52
10079;BME280;5078;42.544;22.966;2022-09-09T08:03:24;94082.88;;;25.37;62.89
10079;BME280;5078;42.544;22.966;2022-09-09T08:05:50;94097.34;;;25.53;62.32
10079;BME280;5078;42.544;22.966;2022-09-09T08:08:18;94086.47;;;25.10;65.54
10079;BME280;5078;42.544;22.966;2022-09-09T08:10:45;94092.69;;;25.06;66.25
10079;BME280;5078;42.544;22.966;2022-09-09T08:13:12;94087.00;;;25.07;66.63
10079;BME280;5078;42.544;22.966;2022-09-09T08:15:39;94089.44;;;25.04;67.54
10079;BME280;5078;42.544;22.966;2022-09-09T08:18:07;94096.34;;;25.16;66.62
10079;BME280;5078;42.544;22.966;2022-09-09T08:20:35;94098.09;;;24.73;67.52
10079;BME280;5078;42.544;22.966;2022-09-09T08:23:02;93968.72;;;24.31;67.12
10079;BME280;5078;42.544;22.966;2022-09-09T08:25:31;94086.97;;;25.02;68.13
10079;BME280;5078;42.544;22.966;2022-09-09T08:28:00;94084.06;;;25.51;66.13
10079;BME280;5078;42.544;22.966;2022-09-09T08:30:27;94083.88;;;25.26;67.08
10079;BME280;5078;42.544;22.966;2022-09-09T08:32:53;94076.63;;;25.84;64.96
10079;BME280;5078;42.544;22.966;2022-09-09T08:35:20;94074.03;;;26.20;63.80
10079;BME280;5078;42.544;22.966;2022-09-09T08:37:47;94007.19;;;26.19;62.17
10079;BME280;5078;42.544;22.966;2022-09-09T08:40:23;94057.00;;;26.76;61.21
10079;BME280;5078;42.544;22.966;2022-09-09T08:42:55;94056.47;;;26.99;57.14
10079;BME280;5078;42.544;22.966;2022-09-09T08:45:31;94036.03;;;27.27;56.99
10079;BME280;5078;42.544;22.966;2022-09-09T08:48:11;94060.16;;;27.75;55.18
10079;BME280;5078;42.544;22.966;2022-09-09T08:50:42;94062.97;;;27.44;55.98
10079;BME280;5078;42.544;22.966;2022-09-09T08:53:16;94060.28;;;27.14;57.61
10079;BME280;5078;42.544;22.966;2022-09-09T08:55:47;94065.44;;;26.95;57.93
10079;BME280;5078;42.544;22.966;2022-09-09T08:58:18;94071.16;;;26.88;59.06
10079;BME280;5078;42.544;22.966;2022-09-09T09:01:00;94058.31;;;26.42;60.61
10079;BME280;5078;42.544;22.966;2022-09-09T09:03:36;94068.44;;;26.73;59.62
10079;BME280;5078;42.544;22.966;2022-09-09T09:06:19;94066.81;;;26.77;59.10
10079;BME280;5078;42.544;22.966;2022-09-09T09:08:59;94069.78;;;26.55;60.67
10079;BME280;5078;42.544;22.966;2022-09-09T09:11:35;94071.97;;;26.63;59.54
10079;BME280;5078;42.544;22.966;2022-09-09T09:14:08;94077.09;;;26.49;60.96
10079;BME280;5078;42.544;22.966;2022-09-09T09:16:39;94079.06;;;26.64;60.33
10079;BME280;5078;42.544;22.966;2022-09-09T09:19:12;94073.63;;;26.74;58.76
10079;BME280;5078;42.544;22.966;2022-09-09T09:21:43;94069.25;;;26.58;60.28
10079;BME280;5078;42.544;22.966;2022-09-09T09:24:16;94065.44;;;26.54;60.60
10079;BME280;5078;42.544;22.966;2022-09-09T09:26:46;94058.09;;;26.70;60.79
10079;BME280;5078;42.544;22.966;2022-09-09T09:29:16;94057.84;;;27.02;59.67
10079;BME280;5078;42.544;22.966;2022-09-09T09:31:46;94055.66;;;27.04;59.38
10079;BME280;5078;42.544;22.966;2022-09-09T09:34:15;94064.09;;;27.02;59.72
10079;BME280;5078;42.544;22.966;2022-09-09T09:36:44;94054.00;;;27.34;57.50
10079;BME280;5078;42.544;22.966;2022-09-09T09:39:23;94070.34;;;27.08;59.20
10079;BME280;5078;42.544;22.966;2022-09-09T09:41:50;94050.75;;;26.80;59.55
10079;BME280;5078;42.544;22.966;2022-09-09T09:44:27;94064.84;;;26.46;62.60
10079;BME280;5078;42.544;22.966;2022-09-09T09:47:06;94060.78;;;26.39;63.42
10079;BME280;5078;42.544;22.966;2022-09-09T09:49:33;94048.78;;;26.24;63.40
10079;BME280;5078;42.544;22.966;2022-09-09T09:52:01;94059.88;;;26.13;63.96
10079;BME280;5078;42.544;22.966;2022-09-09T09:54:29;94059.66;;;26.30;63.24
10079;BME280;5078;42.544;22.966;2022-09-09T09:57:08;94071.63;;;26.34;63.94
10079;BME280;5078;42.544;22.966;2022-09-09T09:59:37;94069.31;;;25.90;65.48
10079;BME280;5078;42.544;22.966;2022-09-09T10:02:19;94073.44;;;26.02;64.85
10079;BME280;5078;42.544;22.966;2022-09-09T10:05:00;94077.28;;;26.12;64.08
10079;BME280;5078;42.544;22.966;2022-09-09T10:07:30;94077.75;;;25.98;62.92
10079;BME280;5078;42.544;22.966;2022-09-09T10:09:58;94076.88;;;25.82;65.72
10079;BME280;5078;42.544;22.966;2022-09-09T10:12:34;94087.16;;;25.75;64.76
10079;BME280;5078;42.544;22.966;2022-09-09T10:15:22;94073.66;;;25.91;64.71
10079;BME280;5078;42.544;22.966;2022-09-09T10:17:58;94089.94;;;25.86;64.92
10079;BME280;5078;42.544;22.966;2022-09-09T10:20:37;94088.28;;;25.85;65.85
10079;BME280;5078;42.544;22.966;2022-09-09T10:23:16;94085.56;;;25.79;65.65
10079;BME280;5078;42.544;22.966;2022-09-09T10:26:01;94082.59;;;25.81;65.17
10079;BME280;5078;42.544;22.966;2022-09-09T10:28:51;94095.31;;;25.75;67.21
10079;BME280;5078;42.544;22.966;2022-09-09T10:31:27;94094.22;;;25.71;69.52
10079;BME280;5078;42.544;22.966;2022-09-09T10:34:05;94104.63;;;25.42;68.13
10079;BME280;5078;42.544;22.966;2022-09-09T10:36:42;94091.00;;;25.32;69.13
10079;BME280;5078;42.544;22.966;2022-09-09T10:39:22;94088.19;;;25.64;66.28
10079;BME280;5078;42.544;22.966;2022-09-09T10:41:57;94097.03;;;25.39;67.70
10079;BME280;5078;42.544;22.966;2022-09-09T10:44:50;94093.16;;;25.30;69.41
10079;BME280;5078;42.544;22.966;2022-09-09T10:47:43;94102.56;;;25.59;66.64
10079;BME280;5078;42.544;22.966;2022-09-09T10:50:32;94086.56;;;25.68;63.72
10079;BME280;5078;42.544;22.966;2022-09-09T10:53:10;94115.69;;;25.78;64.92
10079;BME280;5078;42.544;22.966;2022-09-09T10:55:44;94117.38;;;25.04;67.02
10079;BME280;5078;42.544;22.966;2022-09-09T10:58:16;94121.50;;;25.44;66.47
10079;BME280;5078;42.544;22.966;2022-09-09T11:00:47;94119.72;;;25.28;67.08
10079;BME280;5078;42.544;22.966;2022-09-09T11:03:19;94117.63;;;25.35;66.83
10079;BME280;5078;42.544;22.966;2022-09-09T11:05:49;94110.22;;;25.25;69.74
10079;BME280;5078;42.544;22.966;2022-09-09T11:08:19;94068.03;;;25.12;72.89
10079;BME280;5078;42.544;22.966;2022-09-09T11:10:52;94070.69;;;25.02;75.56
10079;BME280;5078;42.544;22.966;2022-09-09T11:13:24;94091.00;;;25.32;76.82
10079;BME280;5078;42.544;22.966;2022-09-09T11:15:58;94056.56;;;25.37;78.35
10079;BME280;5078;42.544;22.966;2022-09-09T11:18:29;94081.19;;;25.26;77.48
10079;BME280;5078;42.544;22.966;2022-09-09T11:21:00;94073.31;;;25.24;76.89
10079;BME280;5078;42.544;22.966;2022-09-09T11:23:34;94050.63;;;25.51;77.18
10079;BME280;5078;42.544;22.966;2022-09-09T11:26:06;94032.38;;;25.36;75.19
10079;BME280;5078;42.544;22.966;2022-09-09T11:28:43;94032.72;;;25.50;70.69
10079;BME280;5078;42.544;22.966;2022-09-09T11:31:21;94032.69;;;25.39;76.10
10079;BME280;5078;42.544;22.966;2022-09-09T11:34:13;94047.06;;;25.40;75.83
10079;BME280;5078;42.544;22.966;2022-09-09T11:37:05;94044.97;;;25.52;74.42
10079;BME280;5078;42.544;22.966;2022-09-09T11:39:48;94049.59;;;25.57;75.40
10079;BME280;5078;42.544;22.966;2022-09-09T11:42:22;94043.53;;;25.39;75.25
10079;BME280;5078;42.544;22.966;2022-09-09T11:44:49;94031.72;;;25.66;75.51
10079;BME280;5078;42.544;22.966;2022-09-09T11:47:21;94008.38;;;25.70;72.08
10079;BME280;5078;42.544;22.966;2022-09-09T11:49:51;94030.13;;;25.75;73.36
10079;BME280;5078;42.544;22.966;2022-09-09T11:52:23;94017.97;;;25.88;69.42
10079;BME280;5078;42.544;22.966;2022-09-09T11:54:51;94028.56;;;25.90;67.07
10079;BME280;5078;42.544;22.966;2022-09-09T11:57:24;94040.44;;;25.78;70.65
10079;BME280;5078;42.544;22.966;2022-09-09T11:59:53;94033.06;;;25.64;69.54
10079;BME280;5078;42.544;22.966;2022-09-09T12:02:23;94035.22;;;25.61;69.94
10079;BME280;5078;42.544;22.966;2022-09-09T12:04:59;94023.88;;;25.75;69.63
10079;BME280;5078;42.544;22.966;2022-09-09T12:07:33;94030.91;;;25.71;67.09
10079;BME280;5078;42.544;22.966;2022-09-09T12:10:04;94032.78;;;25.60;67.87
10079;BME280;5078;42.544;22.966;2022-09-09T12:12:33;94025.28;;;25.25;70.42
10079;BME280;5078;42.544;22.966;2022-09-09T12:15:17;94025.72;;;25.11;71.96
10079;BME280;5078;42.544;22.966;2022-09-09T12:17:47;94020.06;;;25.18;74.17
10079;BME280;5078;42.544;22.966;2022-09-09T12:20:18;94028.50;;;25.16;71.59
10079;BME280;5078;42.544;22.966;2022-09-09T12:22:53;94023.94;;;25.27;71.38
10079;BME280;5078;42.544;22.966;2022-09-09T12:25:28;94027.63;;;25.16;74.24
10079;BME280;5078;42.544;22.966;2022-09-09T12:28:03;94024.75;;;25.28;73.14
10079;BME280;5078;42.544;22.966;2022-09-09T12:30:35;94033.94;;;25.22;75.33
10079;BME280;5078;42.544;22.966;2022-09-09T12:33:10;94027.44;;;25.23;74.78
10079;BME280;5078;42.544;22.966;2022-09-09T12:35:41;93976.22;;;24.94;76.48
10079;BME280;5078;42.544;22.966;2022-09-09T12:38:12;94009.97;;;25.13;76.91
10079;BME280;5078;42.544;22.966;2022-09-09T12:40:42;94002.16;;;25.17;75.39
10079;BME280;5078;42.544;22.966;2022-09-09T12:43:19;94009.66;;;25.05;76.01
10079;BME280;5078;42.544;22.966;2022-09-09T12:45:48;93993.59;;;24.98;77.81
10079;BME280;5078;42.544;22.966;2022-09-09T12:48:26;93991.53;;;25.15;80.65
10079;BME280;5078;42.544;22.966;2022-09-09T12:50:57;93977.66;;;25.07;78.98
10079;BME280;5078;42.544;22.966;2022-09-09T12:53:27;93969.59;;;25.17;76.95
10079;BME280;5078;42.544;22.966;2022-09-09T12:55:57;93976.31;;;25.09;75.46
10079;BME280;5078;42.544;22.966;2022-09-09T12:58:24;93944.84;;;24.66;79.98
10079;BME280;5078;42.544;22.966;2022-09-09T13:00:54;93971.00;;;24.82;77.38
10079;BME280;5078;42.544;22.966;2022-09-09T13:03:23;93967.25;;;24.93;77.97
10079;BME280;5078;42.544;22.966;2022-09-09T13:05:50;93973.56;;;24.99;79.21
10079;BME280;5078;42.544;22.966;2022-09-09T13:08:20;93965.13;;;25.01;81.28
10079;BME280;5078;42.544;22.966;2022-09-09T13:10:50;93958.91;;;25.05;80.35
10079;BME280;5078;42.544;22.966;2022-09-09T13:13:21;93949.22;;;25.14;78.97
10079;BME280;5078;42.544;22.966;2022-09-09T13:15:51;93950.53;;;25.07;80.96